Time;durP1;ratioP1;P1;durP2;ratioP2;P2;SDS_P1;SDS_P2;PMS_P1;PMS_P2;Temp;Humidity;BMP_temperature;BMP_pressure;BME280_temperature;BME280_humidity;BME280_pressure;Samples;Min_cycle;Max_cycle;Signal;HPM_P1;HPM_P2
2020/12/14 00:00:18;;;;;;;2.80;1.40;;;21.30;46.30;;;;;;1511746;93;21620;-31
2020/12/14 00:02:46;;;;;;;6.35;2.12;;;21.30;46.20;;;;;;1512811;93;21336;-33
2020/12/14 00:05:14;;;;;;;3.10;1.52;;;21.30;46.20;;;;;;1512464;93;21761;-33
2020/12/14 00:07:42;;;;;;;4.90;2.02;;;21.30;46.30;;;;;;1514422;93;21239;-32
2020/12/14 00:10:10;;;;;;;5.15;2.10;;;21.30;46.40;;;;;;1494644;94;21227;-32
2020/12/14 00:12:38;;;;;;;3.10;1.65;;;21.30;46.40;;;;;;1509240;93;21822;-33
2020/12/14 00:15:06;;;;;;;5.22;1.87;;;21.30;46.30;;;;;;1494277;94;21615;-33
2020/12/14 00:17:34;;;;;;;4.33;2.10;;;21.30;46.40;;;;;;1493112;93;21552;-33
2020/12/14 00:20:03;;;;;;;3.33;1.80;;;21.30;46.40;;;;;;1509823;93;21214;-33
2020/12/14 00:22:35;;;;;;;4.08;1.80;;;21.20;46.40;;;;;;1496346;93;21765;-31
2020/12/14 00:25:04;;;;;;;4.08;1.67;;;21.20;46.30;;;;;;1514036;92;21183;-32
2020/12/14 00:27:32;;;;;;;5.28;2.27;;;21.20;46.40;;;;;;1510445;92;21651;-32
2020/12/14 00:29:59;;;;;;;2.98;1.67;;;21.20;46.50;;;;;;1494677;94;21171;-33
2020/12/14 00:32:27;;;;;;;4.22;1.92;;;21.20;46.50;;;;;;1513313;93;22605;-32
2020/12/14 00:34:54;;;;;;;4.22;1.75;;;21.20;46.40;;;;;;1512484;93;21250;-31
2020/12/14 00:37:22;;;;;;;3.95;1.75;;;21.20;46.50;;;;;;1495320;93;21314;-33
2020/12/14 00:39:50;;;;;;;2.92;1.60;;;21.20;46.40;;;;;;1510030;93;21194;-32
2020/12/14 00:42:17;;;;;;;5.80;1.60;;;21.20;46.40;;;;;;1513681;92;21242;-33
2020/12/14 00:44:45;;;;;;;3.87;1.62;;;21.20;46.30;;;;;;1501302;93;21233;-31
2020/12/14 00:47:13;;;;;;;4.22;1.95;;;21.20;46.20;;;;;;1501550;93;21496;-33
2020/12/14 00:49:40;;;;;;;4.37;1.62;;;21.20;46.30;;;;;;1510784;92;21700;-32
2020/12/14 00:52:12;;;;;;;4.03;1.57;;;21.20;46.30;;;;;;1501089;93;21195;-32
2020/12/14 00:54:37;;;;;;;2.20;1.52;;;21.20;46.30;;;;;;1500603;93;21184;-31
2020/12/14 00:57:05;;;;;;;2.98;1.52;;;21.20;46.30;;;;;;1495583;93;21459;-30
2020/12/14 00:59:32;;;;;;;6.30;1.72;;;21.20;46.30;;;;;;1498051;92;21398;-32
2020/12/14 01:02:00;;;;;;;4.70;1.77;;;21.10;46.20;;;;;;1455982;95;21234;-31
2020/12/14 01:04:28;;;;;;;3.52;1.92;;;21.10;46.20;;;;;;1499228;93;21576;-32
2020/12/14 01:06:55;;;;;;;2.90;1.80;;;21.10;46.10;;;;;;1501300;93;21364;-31
2020/12/14 01:09:23;;;;;;;4.72;1.80;;;21.10;46.00;;;;;;1488346;93;22265;-33
2020/12/14 01:11:51;;;;;;;3.75;1.60;;;21.10;46.10;;;;;;1498464;93;21176;-34
2020/12/14 01:14:19;;;;;;;2.25;1.37;;;21.10;46.10;;;;;;1501872;93;21304;-33
2020/12/14 01:16:49;;;;;;;5.12;1.92;;;21.10;46.10;;;;;;1481061;93;21291;-32
2020/12/14 01:19:17;;;;;;;2.90;1.47;;;21.10;46.00;;;;;;1501889;93;21678;-33
2020/12/14 01:21:45;;;;;;;3.87;1.60;;;21.10;46.00;;;;;;1476808;94;21276;-35
2020/12/14 01:24:12;;;;;;;7.28;1.95;;;21.10;46.10;;;;;;1504159;92;21297;-33
2020/12/14 01:26:40;;;;;;;3.12;1.72;;;21.10;46.10;;;;;;1496071;93;21290;-33
2020/12/14 01:29:07;;;;;;;2.83;1.45;;;21.10;46.00;;;;;;1479579;93;21812;-32
2020/12/14 01:31:35;;;;;;;3.42;1.70;;;21.00;46.10;;;;;;1497807;93;21383;-35
2020/12/14 01:34:03;;;;;;;1.87;1.37;;;21.00;46.00;;;;;;1483686;94;21184;-33
2020/12/14 01:36:31;;;;;;;3.58;1.57;;;21.10;46.10;;;;;;1499329;93;21239;-33
2020/12/14 01:38:58;;;;;;;3.87;2.27;;;21.00;46.10;;;;;;1500981;93;21334;-35
2020/12/14 01:41:26;;;;;;;5.45;1.60;;;21.10;46.10;;;;;;1486105;93;21449;-32
2020/12/14 01:43:54;;;;;;;2.77;1.60;;;21.00;46.00;;;;;;1503812;93;21310;-32
2020/12/14 01:46:30;;;;;;;2.55;1.47;;;21.00;46.00;;;;;;1512738;92;21655;-33
2020/12/14 01:49:02;;;;;;;3.45;1.60;;;21.00;46.00;;;;;;1494133;93;21599;-33
2020/12/14 01:51:31;;;;;;;2.72;1.60;;;21.00;46.00;;;;;;1512659;93;21710;-33
2020/12/14 01:54:01;;;;;;;3.25;1.40;;;21.00;45.90;;;;;;1493848;94;21164;-32
2020/12/14 01:56:29;;;;;;;2.67;1.62;;;21.00;45.90;;;;;;1495639;93;21726;-34
2020/12/14 01:58:56;;;;;;;2.92;1.52;;;21.00;45.90;;;;;;1511250;92;21225;-32
2020/12/14 02:01:24;;;;;;;2.10;1.42;;;21.00;46.00;;;;;;1510220;92;21132;-33
2020/12/14 02:03:52;;;;;;;2.95;1.47;;;21.00;46.00;;;;;;1514490;93;21278;-33
2020/12/14 02:06:19;;;;;;;2.17;1.35;;;21.00;45.90;;;;;;1511687;93;21198;-33
2020/12/14 02:08:47;;;;;;;3.45;1.50;;;21.00;46.00;;;;;;1512085;93;21278;-33
2020/12/14 02:11:15;;;;;;;2.95;1.50;;;21.00;45.90;;;;;;1509415;93;21226;-33
2020/12/14 02:13:42;;;;;;;3.33;1.80;;;20.90;45.90;;;;;;1495467;93;21202;-32
2020/12/14 02:16:10;;;;;;;3.30;1.50;;;20.90;45.90;;;;;;1520263;92;21702;-31
2020/12/14 02:18:38;;;;;;;1.65;1.20;;;20.90;45.80;;;;;;1510310;93;21793;-33
2020/12/14 02:21:06;;;;;;;2.47;1.70;;;21.00;45.90;;;;;;1511585;93;21214;-33
2020/12/14 02:23:34;;;;;;;2.55;1.47;;;20.90;45.80;;;;;;1512497;93;21402;-32
2020/12/14 02:26:01;;;;;;;2.20;1.60;;;21.00;45.90;;;;;;1511978;93;21215;-31
2020/12/14 02:28:29;;;;;;;3.05;1.55;;;21.00;45.80;;;;;;1510856;93;21306;-33
2020/12/14 02:30:56;;;;;;;1.98;1.40;;;20.90;45.80;;;;;;1511083;93;21849;-31
2020/12/14 02:33:24;;;;;;;2.80;1.57;;;20.90;45.70;;;;;;1513365;93;21400;-33
2020/12/14 02:35:52;;;;;;;1.55;1.30;;;20.90;45.70;;;;;;1503398;93;21222;-32
2020/12/14 02:38:21;;;;;;;1.95;1.17;;;20.90;45.80;;;;;;1511096;93;21948;-31
2020/12/14 02:40:49;;;;;;;3.55;1.67;;;20.90;45.80;;;;;;1507187;93;21376;-33
2020/12/14 02:43:17;;;;;;;1.72;1.30;;;20.90;45.80;;;;;;1506261;93;21179;-34
2020/12/14 02:45:44;;;;;;;2.37;1.55;;;20.90;45.90;;;;;;1496535;93;21717;-32
2020/12/14 02:48:12;;;;;;;2.95;1.60;;;20.90;46.00;;;;;;1485579;94;21341;-32
2020/12/14 02:50:40;;;;;;;2.52;1.52;;;20.90;46.20;;;;;;1505801;93;21257;-31
2020/12/14 02:53:07;;;;;;;2.77;1.50;;;20.90;46.10;;;;;;1482735;93;21219;-33
2020/12/14 02:55:35;;;;;;;1.98;1.30;;;21.00;46.40;;;;;;1499812;93;21246;-32
2020/12/14 02:58:03;;;;;;;1.52;1.20;;;21.00;46.30;;;;;;1511352;93;21313;-31
2020/12/14 03:00:30;;;;;;;3.12;1.30;;;21.00;46.30;;;;;;1467424;93;21224;-31
2020/12/14 03:02:58;;;;;;;3.62;1.37;;;21.00;46.40;;;;;;1509475;92;21190;-32
2020/12/14 03:05:26;;;;;;;2.65;1.52;;;21.00;46.30;;;;;;1506502;92;21592;-32
2020/12/14 03:07:53;;;;;;;2.83;1.52;;;21.00;46.30;;;;;;1499156;93;21668;-31
2020/12/14 03:10:21;;;;;;;1.77;1.15;;;21.00;46.30;;;;;;1499018;93;22499;-32
2020/12/14 03:12:49;;;;;;;2.83;1.30;;;21.00;46.30;;;;;;1493479;92;21213;-32
2020/12/14 03:15:16;;;;;;;2.58;1.30;;;21.00;46.20;;;;;;1510078;92;21243;-33
2020/12/14 03:17:44;;;;;;;2.85;1.20;;;21.00;46.20;;;;;;1497725;93;21299;-31
2020/12/14 03:20:12;;;;;;;2.42;1.70;;;21.10;46.20;;;;;;1485763;93;21336;-34
2020/12/14 03:22:39;;;;;;;2.55;1.40;;;21.10;46.20;;;;;;1505334;92;21222;-34
2020/12/14 03:25:07;;;;;;;3.15;1.37;;;21.10;46.40;;;;;;1495445;93;21297;-33
2020/12/14 03:27:35;;;;;;;2.95;1.47;;;21.10;46.10;;;;;;1496628;93;21252;-31
2020/12/14 03:30:03;;;;;;;1.55;1.15;;;21.10;46.10;;;;;;1495429;93;21796;-31
2020/12/14 03:32:30;;;;;;;2.80;1.75;;;21.10;46.10;;;;;;1501786;93;21196;-32
2020/12/14 03:34:58;;;;;;;2.75;1.47;;;21.10;46.10;;;;;;1501992;93;21171;-32
2020/12/14 03:37:28;;;;;;;2.27;1.37;;;21.10;46.10;;;;;;1497389;93;21318;-31
2020/12/14 03:39:56;;;;;;;1.62;1.20;;;21.10;46.00;;;;;;1502598;93;22009;-32
2020/12/14 03:42:23;;;;;;;2.75;1.35;;;21.10;46.00;;;;;;1510046;92;21250;-32
2020/12/14 03:44:51;;;;;;;1.87;1.10;;;21.10;45.90;;;;;;1506042;93;21235;-31
2020/12/14 03:47:19;;;;;;;3.80;1.50;;;21.20;46.00;;;;;;1493476;93;21168;-32
2020/12/14 03:49:46;;;;;;;2.33;1.30;;;21.20;46.00;;;;;;1509200;93;21735;-33
2020/12/14 03:52:14;;;;;;;3.50;1.72;;;21.20;46.00;;;;;;1494979;94;21399;-31
2020/12/14 03:54:42;;;;;;;2.75;1.40;;;21.20;46.40;;;;;;1513538;93;21289;-32
2020/12/14 03:57:09;;;;;;;2.70;1.47;;;21.20;46.00;;;;;;1509378;93;21163;-32
2020/12/14 03:59:37;;;;;;;2.27;1.45;;;21.20;45.90;;;;;;1507699;93;21524;-32
2020/12/14 04:02:05;;;;;;;2.30;1.27;;;21.20;45.90;;;;;;1517408;93;21245;-33
2020/12/14 04:04:32;;;;;;;1.82;1.20;;;21.20;45.90;;;;;;1522665;93;21206;-31
2020/12/14 04:07:00;;;;;;;1.60;1.12;;;21.20;45.90;;;;;;1512544;93;21273;-33
2020/12/14 04:09:28;;;;;;;3.77;1.42;;;21.20;45.90;;;;;;1512546;93;21274;-32
2020/12/14 04:11:55;;;;;;;2.35;1.40;;;21.20;45.90;;;;;;1491791;94;21214;-33
2020/12/14 04:14:23;;;;;;;1.67;1.17;;;21.20;45.90;;;;;;1511098;93;21818;-32
2020/12/14 04:16:52;;;;;;;1.72;1.00;;;21.20;45.90;;;;;;1506803;93;21224;-34
2020/12/14 04:19:25;;;;;;;3.37;1.30;;;21.20;45.90;;;;;;1491454;93;21760;-33
2020/12/14 04:21:53;;;;;;;2.47;1.17;;;21.20;45.80;;;;;;1509278;93;21920;-32
2020/12/14 04:24:21;;;;;;;2.08;1.20;;;21.20;45.80;;;;;;1509797;93;21312;-32
2020/12/14 04:26:55;;;;;;;2.58;1.40;;;21.20;45.80;;;;;;1479686;95;21748;-32
2020/12/14 04:29:25;;;;;;;2.40;1.55;;;21.20;45.80;;;;;;1507606;93;21729;-32
2020/12/14 04:31:52;;;;;;;2.30;1.30;;;21.20;45.80;;;;;;1510698;93;21198;-31
2020/12/14 04:34:20;;;;;;;1.20;1.00;;;21.20;45.80;;;;;;1487268;94;21316;-32
2020/12/14 04:36:49;;;;;;;2.15;1.22;;;21.20;45.80;;;;;;1512233;94;21182;-34
2020/12/14 04:39:18;;;;;;;2.52;1.30;;;21.20;45.70;;;;;;1488103;94;21269;-32
2020/12/14 04:41:46;;;;;;;1.20;1.10;;;21.20;45.80;;;;;;1509224;93;21355;-32
2020/12/14 04:44:14;;;;;;;2.08;1.10;;;21.20;45.70;;;;;;1512150;93;21237;-31
2020/12/14 04:46:44;;;;;;;2.00;1.10;;;21.20;45.70;;;;;;1484439;93;21188;-34
2020/12/14 04:49:11;;;;;;;3.08;1.30;;;21.20;45.70;;;;;;1495408;92;21353;-34
2020/12/14 04:51:39;;;;;;;2.77;1.17;;;21.20;45.70;;;;;;1500731;93;21218;-31
2020/12/14 04:54:08;;;;;;;1.40;1.10;;;21.20;45.60;;;;;;1509579;92;21241;-32
2020/12/14 04:56:41;;;;;;;2.30;1.32;;;21.20;45.60;;;;;;1501803;93;21560;-32
2020/12/14 04:59:10;;;;;;;1.15;1.05;;;21.20;45.70;;;;;;1482423;94;21605;-32
2020/12/14 05:01:37;;;;;;;3.17;1.45;;;21.20;45.70;;;;;;1500522;94;21215;-32
2020/12/14 05:04:05;;;;;;;1.40;1.05;;;21.20;45.60;;;;;;1502593;93;21391;-31
2020/12/14 05:06:52;;;;;;;1.98;1.35;;;21.20;45.60;;;;;;1486337;93;21643;-33
2020/12/14 05:09:21;;;;;;;2.90;1.27;;;21.20;45.60;;;;;;1492740;93;67592;-35
2020/12/14 05:11:48;;;;;;;2.58;1.47;;;21.20;45.60;;;;;;1478062;94;21242;-32
2020/12/14 05:14:19;;;;;;;2.15;1.35;;;21.20;45.60;;;;;;1479027;94;21545;-33
2020/12/14 05:16:47;;;;;;;1.47;1.00;;;21.30;45.70;;;;;;1487912;93;21347;-35
2020/12/14 05:19:22;;;;;;;2.98;1.25;;;21.20;45.60;;;;;;1462655;94;21290;-31
2020/12/14 05:21:52;;;;;;;5.78;1.75;;;21.20;45.60;;;;;;1467810;94;67738;-31
2020/12/14 05:24:22;;;;;;;1.52;1.00;;;21.30;45.60;;;;;;1480536;95;21277;-30
2020/12/14 05:26:50;;;;;;;1.70;1.05;;;21.30;46.10;;;;;;1472199;95;21236;-31
2020/12/14 05:29:21;;;;;;;2.08;1.32;;;21.20;45.50;;;;;;1471333;94;21342;-32
2020/12/14 05:32:09;;;;;;;3.37;1.25;;;21.20;45.50;;;;;;1467880;95;21389;-31
2020/12/14 05:34:42;;;;;;;1.67;1.05;;;21.20;45.50;;;;;;1482582;94;67502;-34
2020/12/14 05:37:11;;;;;;;2.02;1.40;;;21.20;45.50;;;;;;1476825;94;21649;-32
2020/12/14 05:39:40;;;;;;;1.85;1.30;;;21.20;45.50;;;;;;1495762;93;21218;-34
2020/12/14 05:42:18;;;;;;;3.90;1.32;;;21.20;45.50;;;;;;1492553;93;21239;-32
2020/12/14 05:44:48;;;;;;;1.02;0.90;;;21.20;45.60;;;;;;1477768;94;21984;-32
2020/12/14 05:47:30;;;;;;;1.60;1.00;;;21.20;45.50;;;;;;1493877;93;21277;-33
2020/12/14 05:50:01;;;;;;;1.40;1.30;;;21.20;45.50;;;;;;1468880;95;67747;-33
2020/12/14 05:52:35;;;;;;;1.70;1.10;;;21.20;45.50;;;;;;1492882;94;21296;-33
2020/12/14 05:55:04;;;;;;;2.30;1.15;;;21.20;45.50;;;;;;1491581;94;21239;-32
2020/12/14 05:57:37;;;;;;;1.95;1.22;;;21.20;45.50;;;;;;1461237;94;21266;-32
2020/12/14 06:00:10;;;;;;;1.20;1.10;;;21.20;45.50;;;;;;1476914;94;21207;-33
2020/12/14 06:02:39;;;;;;;3.05;1.10;;;21.20;45.50;;;;;;1510793;92;21227;-32
2020/12/14 06:05:08;;;;;;;3.37;1.50;;;21.20;45.50;;;;;;1493911;94;21268;-31
2020/12/14 06:07:39;;;;;;;2.85;1.50;;;21.20;45.50;;;;;;1493902;93;21802;-33
2020/12/14 06:10:16;;;;;;;2.85;1.40;;;21.20;45.50;;;;;;1494524;94;21203;-34
2020/12/14 06:12:45;;;;;;;1.35;1.00;;;21.20;45.50;;;;;;1495387;93;21289;-31
2020/12/14 06:15:17;;;;;;;3.33;1.30;;;21.20;45.50;;;;;;1495677;93;21252;-33
2020/12/14 06:17:45;;;;;;;3.10;1.20;;;21.20;45.40;;;;;;1493173;93;21254;-32
2020/12/14 06:20:16;;;;;;;3.27;1.50;;;21.20;45.50;;;;;;1491293;94;21372;-33
2020/12/14 06:22:47;;;;;;;4.70;1.50;;;21.20;45.40;;;;;;1508872;92;21198;-32
2020/12/14 06:25:16;;;;;;;2.75;1.37;;;21.30;45.60;;;;;;1484484;93;21252;-32
2020/12/14 06:27:44;;;;;;;2.47;1.27;;;21.30;45.60;;;;;;1492478;93;21262;-32
2020/12/14 06:30:31;;;;;;;3.30;1.35;;;21.30;45.80;;;;;;1508871;92;21234;-31
2020/12/14 06:33:01;;;;;;;2.30;1.20;;;21.30;45.90;;;;;;1490280;93;67804;-33
2020/12/14 06:35:44;;;;;;;3.83;1.52;;;21.30;46.20;;;;;;1476836;94;21202;-32
2020/12/14 06:38:12;;;;;;;2.30;1.47;;;21.40;46.50;;;;;;1498186;93;67453;-33
2020/12/14 06:41:01;;;;;;;4.83;1.55;;;21.30;46.70;;;;;;1499514;93;21264;-32
2020/12/14 06:43:31;;;;;;;2.40;1.25;;;21.30;46.70;;;;;;1495810;90;67805;-34
2020/12/14 06:46:01;;;;;;;1.80;1.30;;;21.40;46.60;;;;;;1493465;92;21314;-31
2020/12/14 06:48:47;;;;;;;4.87;1.65;;;21.40;46.60;;;;;;1494172;94;21171;-32
2020/12/14 06:51:16;;;;;;;4.45;1.47;;;21.40;46.60;;;;;;1491839;94;68090;-33
2020/12/14 06:53:55;;;;;;;5.33;1.40;;;21.40;46.50;;;;;;1476858;94;21846;-33
2020/12/14 06:56:34;;;;;;;2.33;1.35;;;21.50;46.90;;;;;;1493851;93;21262;-33
2020/12/14 06:59:02;;;;;;;2.98;1.40;;;21.40;46.40;;;;;;1500942;93;67978;-33
2020/12/14 07:01:38;;;;;;;3.65;1.75;;;21.50;46.50;;;;;;1499579;92;21219;-33
2020/12/14 07:04:06;;;;;;;;;;;21.50;47.00;;;;;;1503766;93;21211;-34
2020/12/14 07:06:34;;;;;;;5.78;1.47;;;21.50;47.30;;;;;;1499810;92;20582;-33
2020/12/14 07:09:16;;;;;;;3.35;1.80;;;21.60;47.20;;;;;;1467634;94;21675;-33
2020/12/14 07:11:44;;;;;;;4.22;1.87;;;21.70;47.20;;;;;;1458658;94;21720;-32
2020/12/14 07:14:15;;;;;;;2.83;1.70;;;21.70;47.00;;;;;;1501504;93;21282;-33
2020/12/14 07:16:43;;;;;;;3.60;1.47;;;21.80;46.80;;;;;;1499626;93;21324;-32
2020/12/14 07:19:12;;;;;;;2.58;1.65;;;21.90;46.70;;;;;;1485881;93;21845;-32
2020/12/14 07:21:41;;;;;;;2.22;1.60;;;22.00;46.70;;;;;;1502404;93;21294;-32
2020/12/14 07:24:10;;;;;;;2.47;1.37;;;22.00;46.60;;;;;;1500305;93;21234;-32
2020/12/14 07:26:38;;;;;;;3.15;1.47;;;22.10;47.40;;;;;;1483644;94;21227;-32
2020/12/14 07:29:07;;;;;;;2.30;1.22;;;22.10;46.50;;;;;;1500980;93;21719;-32
2020/12/14 07:31:35;;;;;;;2.77;1.62;;;22.20;46.30;;;;;;1503251;92;21199;-33
2020/12/14 07:34:03;;;;;;;3.02;1.67;;;22.20;46.30;;;;;;1466437;93;21306;-34
2020/12/14 07:36:33;;;;;;;4.62;1.47;;;22.30;46.40;;;;;;1501415;93;21167;-34
2020/12/14 07:39:01;;;;;;;3.80;1.45;;;22.30;46.30;;;;;;1483765;94;21215;-32
2020/12/14 07:41:29;;;;;;;2.70;1.50;;;22.40;45.90;;;;;;1484212;94;21243;-34
2020/12/14 07:43:59;;;;;;;3.62;1.45;;;22.40;45.80;;;;;;1500117;93;21240;-34
2020/12/14 07:46:35;;;;;;;4.42;1.67;;;22.50;45.50;;;;;;1471557;93;21356;-32
2020/12/14 07:49:11;;;;;;;1.62;1.35;;;22.40;45.50;;;;;;1507076;93;21589;-32
2020/12/14 07:51:42;;;;;;;;;;;22.40;45.70;;;;;;1509673;93;21218;-31
2020/12/14 07:54:15;;;;;;;2.70;1.40;;;22.50;47.00;;;;;;1503870;93;20364;-32
2020/12/14 07:56:49;;;;;;;3.27;2.33;;;22.60;46.10;;;;;;1505717;93;21227;-34
2020/12/14 07:59:21;;;;;;;2.22;1.50;;;22.60;45.60;;;;;;1503480;93;21240;-31
2020/12/14 08:01:49;;;;;;;2.95;1.72;;;22.60;45.90;;;;;;1489350;94;21759;-32
2020/12/14 08:04:32;;;;;;;2.98;1.42;;;22.60;45.50;;;;;;1508366;93;21167;-33
2020/12/14 08:07:00;;;;;;;1.67;1.42;;;22.70;45.70;;;;;;1503612;93;68514;-33
2020/12/14 08:09:34;;;;;;;4.65;1.80;;;22.70;45.50;;;;;;1501635;93;21681;-33
2020/12/14 08:12:03;;;;;;;2.27;1.20;;;22.60;45.70;;;;;;1502361;93;21233;-34
2020/12/14 08:14:32;;;;;;;2.77;1.67;;;22.70;45.30;;;;;;1484576;93;21222;-34
2020/12/14 08:17:01;;;;;;;4.20;1.10;;;22.70;46.10;;;;;;1501902;93;21171;-33
2020/12/14 08:19:31;;;;;;;2.22;1.50;;;22.70;45.50;;;;;;1481156;94;21182;-32
2020/12/14 08:22:08;;;;;;;4.97;2.05;;;22.80;45.40;;;;;;1499802;93;21260;-32
2020/12/14 08:24:38;;;;;;;2.52;1.40;;;22.70;45.30;;;;;;1501252;93;21819;-33
2020/12/14 08:27:08;;;;;;;2.58;1.60;;;22.70;45.40;;;;;;1484875;93;21211;-33
2020/12/14 08:29:38;;;;;;;1.70;1.10;;;22.80;45.30;;;;;;1501282;93;22471;-34
2020/12/14 08:32:08;;;;;;;2.12;1.22;;;22.80;45.20;;;;;;1500324;93;21689;-33
2020/12/14 08:34:37;;;;;;;4.42;1.40;;;22.80;45.60;;;;;;1499405;93;21935;-32
2020/12/14 08:37:06;;;;;;;1.50;1.37;;;22.80;45.70;;;;;;1501173;93;21316;-32
2020/12/14 08:39:34;;;;;;;2.08;1.40;;;22.80;45.50;;;;;;1482885;94;21239;-33
2020/12/14 08:42:07;;;;;;;2.22;1.35;;;22.80;45.80;;;;;;1483154;93;21290;-34
2020/12/14 08:44:36;;;;;;;2.22;1.00;;;22.90;45.30;;;;;;1501655;93;21218;-34
2020/12/14 08:47:11;;;;;;;2.00;1.17;;;22.90;46.30;;;;;;1499425;93;22287;-34
2020/12/14 08:49:39;;;;;;;1.75;1.15;;;22.90;45.20;;;;;;1494732;93;21328;-34
2020/12/14 08:52:07;;;;;;;1.80;1.22;;;22.80;45.80;;;;;;1492424;93;21725;-32
2020/12/14 08:54:35;;;;;;;2.27;1.10;;;22.80;45.30;;;;;;1476522;93;21306;-33
2020/12/14 08:57:03;;;;;;;2.80;1.30;;;22.90;46.00;;;;;;1494151;93;21282;-34
2020/12/14 08:59:32;;;;;;;4.12;1.50;;;22.90;46.10;;;;;;1494026;93;21235;-33
2020/12/14 09:02:08;;;;;;;12.82;1.32;;;22.90;45.40;;;;;;1474475;93;21456;-32
2020/12/14 09:04:35;;;;;;;1.57;1.20;;;22.80;45.10;;;;;;1492757;94;21258;-34
2020/12/14 09:07:03;;;;;;;3.45;1.42;;;22.90;45.30;;;;;;1490997;93;22329;-33
2020/12/14 09:09:35;;;;;;;2.42;1.50;;;22.90;45.80;;;;;;1493881;94;21237;-35
2020/12/14 09:12:05;;;;;;;1.32;1.20;;;22.90;45.10;;;;;;1494199;93;21732;-33
2020/12/14 09:14:33;;;;;;;1.12;1.00;;;22.90;45.40;;;;;;1494384;94;21526;-35
2020/12/14 09:17:06;;;;;;;3.00;1.60;;;22.90;45.10;;;;;;1492647;93;22510;-34
2020/12/14 09:19:35;;;;;;;2.33;1.32;;;22.90;45.40;;;;;;1494294;94;21258;-33
2020/12/14 09:22:03;;;;;;;3.83;1.40;;;22.90;45.30;;;;;;1476178;93;21207;-34
2020/12/14 09:24:32;;;;;;;1.98;1.22;;;22.90;45.10;;;;;;1493213;94;21218;-35
2020/12/14 09:27:09;;;;;;;6.90;1.60;;;22.80;45.10;;;;;;1461659;94;21227;-34
2020/12/14 09:29:38;;;;;;;2.37;1.32;;;22.80;45.10;;;;;;1494117;93;21222;-35
2020/12/14 09:32:07;;;;;;;1.87;1.12;;;22.80;45.10;;;;;;1493865;94;21685;-34
2020/12/14 09:34:34;;;;;;;4.67;1.60;;;22.70;45.20;;;;;;1460580;94;21238;-33
2020/12/14 09:37:03;;;;;;;2.12;1.30;;;22.80;45.90;;;;;;1490586;94;21876;-34
2020/12/14 09:39:32;;;;;;;3.27;1.42;;;22.80;45.30;;;;;;1494898;93;21434;-32
2020/12/14 09:42:01;;;;;;;2.33;1.20;;;22.80;45.30;;;;;;1477525;94;21226;-33
2020/12/14 09:44:30;;;;;;;3.80;1.70;;;22.90;45.40;;;;;;1492842;94;21422;-35
2020/12/14 09:47:00;;;;;;;1.80;1.12;;;22.80;45.40;;;;;;1477580;93;21333;-34
2020/12/14 09:49:28;;;;;;;2.45;1.37;;;22.80;45.30;;;;;;1492202;93;21702;-32
2020/12/14 09:51:56;;;;;;;1.37;1.15;;;22.80;45.30;;;;;;1493400;93;21326;-33
2020/12/14 09:54:24;;;;;;;1.70;1.10;;;22.80;45.40;;;;;;1476528;94;21226;-33
2020/12/14 09:56:51;;;;;;;2.35;1.17;;;22.80;45.40;;;;;;1491962;93;21805;-33
2020/12/14 09:59:19;;;;;;;7.70;1.47;;;22.90;45.00;;;;;;1494133;93;21167;-32
2020/12/14 10:01:47;;;;;;;1.30;1.20;;;22.80;45.60;;;;;;1475843;93;21301;-32
2020/12/14 10:04:15;;;;;;;2.12;1.32;;;22.80;45.50;;;;;;1494945;94;21273;-33
2020/12/14 10:06:48;;;;;;;2.10;1.05;;;22.80;45.50;;;;;;1461974;94;21811;-34
2020/12/14 10:09:16;;;;;;;4.05;1.25;;;22.80;45.60;;;;;;1493406;94;21216;-32
2020/12/14 10:11:43;;;;;;;1.82;1.40;;;22.80;45.10;;;;;;1493547;94;21199;-34
2020/12/14 10:14:11;;;;;;;1.50;1.20;;;22.80;45.50;;;;;;1477321;94;22403;-32
2020/12/14 10:16:39;;;;;;;2.17;1.37;;;22.90;45.00;;;;;;1493976;94;21300;-32
2020/12/14 10:19:06;;;;;;;1.60;1.12;;;22.90;45.40;;;;;;1477839;93;21200;-34
2020/12/14 10:21:35;;;;;;;1.42;1.05;;;22.90;45.50;;;;;;1476327;94;21323;-34
2020/12/14 10:24:02;;;;;;;2.87;1.42;;;22.90;45.50;;;;;;1494423;93;21885;-33
2020/12/14 10:26:30;;;;;;;2.17;1.20;;;22.90;45.50;;;;;;1460589;94;21212;-33
2020/12/14 10:28:57;;;;;;;1.57;1.25;;;22.90;45.30;;;;;;1490942;94;21215;-33
2020/12/14 10:31:25;;;;;;;1.95;1.35;;;22.90;45.40;;;;;;1492027;93;21301;-32
2020/12/14 10:33:55;;;;;;;1.90;1.20;;;22.90;45.40;;;;;;1461352;93;21305;-31
2020/12/14 10:36:22;;;;;;;7.85;1.32;;;22.90;45.40;;;;;;1477656;94;21277;-34
2020/12/14 10:38:49;;;;;;;2.00;1.02;;;23.00;45.10;;;;;;1475980;94;21754;-33
2020/12/14 10:41:17;;;;;;;2.17;1.00;;;23.00;45.50;;;;;;1478056;94;21210;-32
2020/12/14 10:43:45;;;;;;;1.82;1.10;;;23.00;45.40;;;;;;1493640;93;21923;-34
2020/12/14 10:46:13;;;;;;;1.35;1.17;;;23.00;45.40;;;;;;1476508;94;21223;-32
2020/12/14 10:48:41;;;;;;;2.70;1.37;;;23.00;45.30;;;;;;1493773;93;21294;-33
2020/12/14 10:51:08;;;;;;;1.50;1.15;;;23.00;45.40;;;;;;1494020;93;21262;-34
2020/12/14 10:53:36;;;;;;;5.45;1.50;;;23.00;45.40;;;;;;1461678;94;21254;-33
2020/12/14 10:56:04;;;;;;;2.35;1.25;;;23.00;45.50;;;;;;1493117;93;21179;-31
2020/12/14 10:58:32;;;;;;;1.98;1.00;;;23.00;45.50;;;;;;1498860;93;21211;-31
2020/12/14 11:01:00;;;;;;;5.00;1.80;;;23.00;45.60;;;;;;1475688;93;21243;-32
2020/12/14 11:03:27;;;;;;;1.72;1.40;;;23.00;45.50;;;;;;1494403;94;21222;-33
2020/12/14 11:05:56;;;;;;;2.27;1.40;;;23.00;45.50;;;;;;1478117;94;21753;-31
2020/12/14 11:08:23;;;;;;;1.70;1.05;;;23.00;45.50;;;;;;1494020;93;22413;-33
2020/12/14 11:10:52;;;;;;;2.15;0.88;;;23.00;45.50;;;;;;1491683;93;21631;-34
2020/12/14 11:13:20;;;;;;;3.45;1.17;;;22.90;45.40;;;;;;1496030;93;21211;-34
2020/12/14 11:15:47;;;;;;;2.20;1.30;;;23.00;45.60;;;;;;1495213;93;21192;-32
2020/12/14 11:18:15;;;;;;;1.67;1.05;;;23.00;45.40;;;;;;1475829;94;22151;-32
2020/12/14 11:20:43;;;;;;;3.90;1.20;;;23.00;45.30;;;;;;1474068;93;21464;-33
2020/12/14 11:23:11;;;;;;;2.12;1.10;;;23.00;45.40;;;;;;1493454;93;21326;-32
2020/12/14 11:25:38;;;;;;;2.35;1.52;;;23.00;45.60;;;;;;1492936;93;21293;-33
2020/12/14 11:28:06;;;;;;;4.35;1.07;;;23.00;45.60;;;;;;1493936;92;21392;-34
2020/12/14 11:30:34;;;;;;;2.05;1.02;;;23.00;45.40;;;;;;1494015;93;21212;-32
2020/12/14 11:33:01;;;;;;;2.85;1.67;;;23.00;45.50;;;;;;1462933;93;21289;-33
2020/12/14 11:35:30;;;;;;;1.87;1.20;;;23.00;45.60;;;;;;1495244;94;21219;-33
2020/12/14 11:37:57;;;;;;;3.25;1.50;;;23.00;45.40;;;;;;1477099;94;21334;-33
2020/12/14 11:40:25;;;;;;;2.05;1.35;;;23.00;45.60;;;;;;1494192;93;21414;-32
2020/12/14 11:42:53;;;;;;;1.90;1.15;;;23.00;45.50;;;;;;1493970;93;21282;-33
2020/12/14 11:45:21;;;;;;;4.85;1.35;;;23.00;45.50;;;;;;1473188;93;21252;-33
2020/12/14 11:47:48;;;;;;;3.85;1.17;;;23.00;45.50;;;;;;1494221;93;21417;-32
2020/12/14 11:50:16;;;;;;;5.12;1.15;;;23.00;45.50;;;;;;1494603;94;21243;-34
2020/12/14 11:52:46;;;;;;;1.45;1.30;;;23.00;45.60;;;;;;1460288;94;21665;-32
2020/12/14 11:55:14;;;;;;;2.55;1.30;;;23.00;45.50;;;;;;1492426;93;21828;-33
2020/12/14 11:57:41;;;;;;;2.25;1.02;;;23.00;45.60;;;;;;1477288;94;21298;-33
2020/12/14 12:00:11;;;;;;;1.72;1.17;;;;;;;;;;1492705;93;21346;-32
2020/12/14 12:02:39;;;;;;;1.87;1.20;;;23.10;45.10;;;;;;1493663;93;21742;-33
2020/12/14 12:05:06;;;;;;;2.95;1.30;;;23.00;45.60;;;;;;1476924;94;21260;-32
2020/12/14 12:07:34;;;;;;;2.40;1.37;;;23.10;45.80;;;;;;1476655;94;21786;-34
2020/12/14 12:10:03;;;;;;;3.83;1.32;;;23.10;45.60;;;;;;1493632;93;21192;-33
2020/12/14 12:12:30;;;;;;;1.00;0.90;;;23.10;45.80;;;;;;1461385;94;22450;-32
2020/12/14 12:14:58;;;;;;;3.02;1.27;;;23.10;45.60;;;;;;1492695;93;21252;-32
2020/12/14 12:17:26;;;;;;;1.75;1.15;;;23.00;45.60;;;;;;1495264;93;21668;-32
2020/12/14 12:19:53;;;;;;;1.72;1.30;;;23.00;45.30;;;;;;1476300;93;21207;-31
2020/12/14 12:22:21;;;;;;;3.75;0.95;;;23.10;46.50;;;;;;1494622;93;23073;-33
2020/12/14 12:24:49;;;;;;;2.98;1.02;;;23.10;45.80;;;;;;1480581;94;21270;-32
2020/12/14 12:27:17;;;;;;;3.62;1.40;;;23.10;45.60;;;;;;1493539;94;21183;-32
2020/12/14 12:29:44;;;;;;;1.42;1.00;;;23.10;45.60;;;;;;1493841;93;21623;-32
2020/12/14 12:32:12;;;;;;;2.83;1.20;;;23.10;45.60;;;;;;1476253;94;21262;-32
2020/12/14 12:34:40;;;;;;;1.32;0.88;;;23.10;45.60;;;;;;1491032;94;21236;-33
2020/12/14 12:37:07;;;;;;;3.05;1.52;;;23.10;45.60;;;;;;1494001;94;21195;-32
2020/12/14 12:39:35;;;;;;;2.30;1.15;;;23.10;45.70;;;;;;1460861;94;21242;-34
2020/12/14 12:42:03;;;;;;;2.02;1.10;;;23.00;45.80;;;;;;1493035;94;21409;-30
2020/12/14 12:44:30;;;;;;;2.52;1.10;;;23.00;45.70;;;;;;1477743;94;21709;-31
2020/12/14 12:46:58;;;;;;;2.25;1.47;;;23.00;46.30;;;;;;1475333;94;21214;-32
2020/12/14 12:49:26;;;;;;;3.02;1.50;;;23.00;45.80;;;;;;1497617;94;21715;-33
2020/12/14 12:51:53;;;;;;;3.20;1.25;;;23.00;45.80;;;;;;1505322;93;21321;-31
2020/12/14 12:54:21;;;;;;;2.52;1.12;;;23.00;45.80;;;;;;1505380;93;21730;-31
2020/12/14 12:56:49;;;;;;;1.80;1.27;;;23.00;45.80;;;;;;1504372;93;21227;-32